sensor_id;sensor_type;location;lat;lon;timestamp;pressure;altitude;pressure_sealevel;temperature;humidity
51321;BME280;38732;49.556;6.286;2023-02-26T00:01:40;99462.56;;;3.80;51.30
51321;BME280;38732;49.556;6.286;2023-02-26T00:04:09;99463.25;;;3.74;51.61
51321;BME280;38732;49.556;6.286;2023-02-26T00:06:38;99452.38;;;3.81;51.16
51321;BME280;38732;49.556;6.286;2023-02-26T00:09:07;99461.59;;;3.75;51.82
51321;BME280;38732;49.556;6.286;2023-02-26T00:11:35;99454.59;;;3.69;50.83
51321;BME280;38732;49.556;6.286;2023-02-26T00:14:05;99455.44;;;3.68;51.81
51321;BME280;38732;49.556;6.286;2023-02-26T00:16:36;99457.06;;;3.64;53.72
51321;BME280;38732;49.556;6.286;2023-02-26T00:19:06;99457.81;;;3.62;53.34
51321;BME280;38732;49.556;6.286;2023-02-26T00:21:36;99471.28;;;3.56;54.18
51321;BME280;38732;49.556;6.286;2023-02-26T00:24:05;99465.00;;;3.45;54.16
51321;BME280;38732;49.556;6.286;2023-02-26T00:26:34;99467.78;;;3.53;54.03
51321;BME280;38732;49.556;6.286;2023-02-26T00:29:03;99461.53;;;3.43;54.50
51321;BME280;38732;49.556;6.286;2023-02-26T00:31:31;99459.06;;;3.44;53.21
51321;BME280;38732;49.556;6.286;2023-02-26T00:34:00;99462.25;;;3.37;53.75
51321;BME280;38732;49.556;6.286;2023-02-26T00:36:33;99464.69;;;3.34;53.56
51321;BME280;38732;49.556;6.286;2023-02-26T00:39:14;99466.38;;;3.34;52.71
51321;BME280;38732;49.556;6.286;2023-02-26T00:41:46;99459.41;;;3.28;52.90
51321;BME280;38732;49.556;6.286;2023-02-26T00:44:15;99461.78;;;3.22;52.55
51321;BME280;38732;49.556;6.286;2023-02-26T00:46:53;99467.56;;;3.16;52.49
51321;BME280;38732;49.556;6.286;2023-02-26T00:52:04;99479.19;;;3.07;54.32
51321;BME280;38732;49.556;6.286;2023-02-26T00:54:33;99480.94;;;3.08;54.69
51321;BME280;38732;49.556;6.286;2023-02-26T00:57:01;99473.94;;;3.02;54.34
51321;BME280;38732;49.556;6.286;2023-02-26T00:59:29;99472.00;;;2.93;54.85
51321;BME280;38732;49.556;6.286;2023-02-26T01:01:57;99474.06;;;2.78;56.18
51321;BME280;38732;49.556;6.286;2023-02-26T01:04:26;99479.97;;;2.77;56.23
51321;BME280;38732;49.556;6.286;2023-02-26T01:06:56;99487.50;;;2.72;57.98
51321;BME280;38732;49.556;6.286;2023-02-26T01:09:30;99486.34;;;2.63;57.34
51321;BME280;38732;49.556;6.286;2023-02-26T01:12:02;99482.88;;;2.61;57.34
51321;BME280;38732;49.556;6.286;2023-02-26T01:14:31;99479.41;;;2.58;57.57
51321;BME280;38732;49.556;6.286;2023-02-26T01:22:54;99485.56;;;2.40;57.56
51321;BME280;38732;49.556;6.286;2023-02-26T01:25:28;99490.81;;;2.44;57.54
51321;BME280;38732;49.556;6.286;2023-02-26T01:27:57;99488.28;;;2.44;57.37
51321;BME280;38732;49.556;6.286;2023-02-26T01:30:26;99489.34;;;2.51;56.93
51321;BME280;38732;49.556;6.286;2023-02-26T01:33:10;99482.16;;;2.39;57.51
51321;BME280;38732;49.556;6.286;2023-02-26T01:35:59;99487.38;;;2.42;56.90
51321;BME280;38732;49.556;6.286;2023-02-26T01:38:46;99487.94;;;2.33;57.66
51321;BME280;38732;49.556;6.286;2023-02-26T01:41:45;99495.06;;;2.44;56.73
51321;BME280;38732;49.556;6.286;2023-02-26T01:44:58;99494.25;;;2.45;55.95
51321;BME280;38732;49.556;6.286;2023-02-26T01:50:21;99488.50;;;2.50;57.07
51321;BME280;38732;49.556;6.286;2023-02-26T01:55:23;99483.03;;;2.65;55.94
51321;BME280;38732;49.556;6.286;2023-02-26T01:57:56;99484.56;;;2.60;56.02
51321;BME280;38732;49.556;6.286;2023-02-26T02:00:25;99485.19;;;2.53;56.88
51321;BME280;38732;49.556;6.286;2023-02-26T02:02:54;99483.72;;;2.61;57.19
51321;BME280;38732;49.556;6.286;2023-02-26T02:05:41;99481.41;;;2.67;56.87
51321;BME280;38732;49.556;6.286;2023-02-26T02:08:12;99473.00;;;2.71;56.83
51321;BME280;38732;49.556;6.286;2023-02-26T02:10:45;99473.16;;;2.76;57.13
51321;BME280;38732;49.556;6.286;2023-02-26T02:18:37;99484.19;;;2.75;57.66
51321;BME280;38732;49.556;6.286;2023-02-26T02:21:29;99488.50;;;2.77;57.56
51321;BME280;38732;49.556;6.286;2023-02-26T02:24:13;99488.59;;;2.80;58.29
51321;BME280;38732;49.556;6.286;2023-02-26T02:27:08;99491.91;;;2.78;57.85
51321;BME280;38732;49.556;6.286;2023-02-26T02:31:01;99495.41;;;2.81;59.04
51321;BME280;38732;49.556;6.286;2023-02-26T02:32:59;99496.81;;;2.72;57.92
51321;BME280;38732;49.556;6.286;2023-02-26T02:35:35;99504.50;;;2.73;58.85
51321;BME280;38732;49.556;6.286;2023-02-26T02:38:22;99493.31;;;2.68;58.40
51321;BME280;38732;49.556;6.286;2023-02-26T02:41:00;99495.78;;;2.65;57.85
51321;BME280;38732;49.556;6.286;2023-02-26T02:43:33;99498.72;;;2.52;58.60
51321;BME280;38732;49.556;6.286;2023-02-26T02:46:05;99500.31;;;2.48;58.07
51321;BME280;38732;49.556;6.286;2023-02-26T02:48:48;99502.03;;;2.49;58.59
51321;BME280;38732;49.556;6.286;2023-02-26T02:51:29;99502.94;;;2.50;59.14
51321;BME280;38732;49.556;6.286;2023-02-26T02:56:42;99517.13;;;2.43;59.65
51321;BME280;38732;49.556;6.286;2023-02-26T02:59:21;99500.84;;;2.40;59.35
51321;BME280;38732;49.556;6.286;2023-02-26T03:02:10;99503.03;;;2.54;60.90
51321;BME280;38732;49.556;6.286;2023-02-26T03:04:40;99501.47;;;2.58;60.49
51321;BME280;38732;49.556;6.286;2023-02-26T03:07:09;99510.03;;;2.60;59.39
51321;BME280;38732;49.556;6.286;2023-02-26T03:09:38;99512.63;;;2.62;59.02
51321;BME280;38732;49.556;6.286;2023-02-26T03:12:06;99509.16;;;2.59;58.88
51321;BME280;38732;49.556;6.286;2023-02-26T03:14:35;99512.53;;;2.58;58.20
51321;BME280;38732;49.556;6.286;2023-02-26T03:17:26;99511.91;;;2.66;59.12
51321;BME280;38732;49.556;6.286;2023-02-26T03:25:34;99536.19;;;2.80;57.63
51321;BME280;38732;49.556;6.286;2023-02-26T03:36:31;99537.38;;;2.91;56.94
51321;BME280;38732;49.556;6.286;2023-02-26T03:39:14;99542.69;;;2.97;56.41
51321;BME280;38732;49.556;6.286;2023-02-26T03:41:56;99536.75;;;2.98;57.26
51321;BME280;38732;49.556;6.286;2023-02-26T03:44:38;99535.28;;;3.05;56.76
51321;BME280;38732;49.556;6.286;2023-02-26T03:47:11;99537.06;;;3.09;57.19
51321;BME280;38732;49.556;6.286;2023-02-26T03:49:45;99536.41;;;3.15;57.42
51321;BME280;38732;49.556;6.286;2023-02-26T03:52:15;99537.44;;;3.20;56.86
51321;BME280;38732;49.556;6.286;2023-02-26T03:54:50;99542.16;;;3.36;56.60
51321;BME280;38732;49.556;6.286;2023-02-26T03:57:19;99538.81;;;3.39;56.33
51321;BME280;38732;49.556;6.286;2023-02-26T03:59:48;99538.97;;;3.43;56.16
51321;BME280;38732;49.556;6.286;2023-02-26T04:02:31;99536.84;;;3.01;58.05
51321;BME280;38732;49.556;6.286;2023-02-26T04:05:09;99535.91;;;3.27;56.60
51321;BME280;38732;49.556;6.286;2023-02-26T04:07:39;99538.06;;;3.13;57.38
51321;BME280;38732;49.556;6.286;2023-02-26T04:10:09;99528.47;;;3.34;56.45
51321;BME280;38732;49.556;6.286;2023-02-26T04:12:38;99527.69;;;3.35;56.08
51321;BME280;38732;49.556;6.286;2023-02-26T04:15:06;99536.13;;;3.34;56.15
51321;BME280;38732;49.556;6.286;2023-02-26T04:17:35;99531.88;;;3.06;57.02
51321;BME280;38732;49.556;6.286;2023-02-26T04:20:05;99536.66;;;3.22;57.17
51321;BME280;38732;49.556;6.286;2023-02-26T04:22:33;99536.09;;;3.33;55.91
51321;BME280;38732;49.556;6.286;2023-02-26T04:25:01;99550.22;;;3.21;56.38
51321;BME280;38732;49.556;6.286;2023-02-26T04:27:30;99550.13;;;3.18;56.19
51321;BME280;38732;49.556;6.286;2023-02-26T04:29:58;99556.94;;;3.19;56.41
51321;BME280;38732;49.556;6.286;2023-02-26T04:32:26;99554.00;;;3.34;55.69
51321;BME280;38732;49.556;6.286;2023-02-26T04:34:54;99561.88;;;3.42;55.83
51321;BME280;38732;49.556;6.286;2023-02-26T04:37:22;99560.38;;;3.47;55.53
51321;BME280;38732;49.556;6.286;2023-02-26T04:39:51;99565.75;;;3.29;56.22
51321;BME280;38732;49.556;6.286;2023-02-26T04:42:19;99561.72;;;3.36;55.69
51321;BME280;38732;49.556;6.286;2023-02-26T04:44:47;99565.09;;;3.35;56.36
51321;BME280;38732;49.556;6.286;2023-02-26T04:47:15;99569.66;;;3.45;55.46
51321;BME280;38732;49.556;6.286;2023-02-26T04:49:43;99572.94;;;3.14;56.59
51321;BME280;38732;49.556;6.286;2023-02-26T04:52:12;99570.22;;;3.36;56.15
51321;BME280;38732;49.556;6.286;2023-02-26T04:54:40;99572.63;;;3.32;55.87
51321;BME280;38732;49.556;6.286;2023-02-26T04:57:08;99578.66;;;3.34;55.90
51321;BME280;38732;49.556;6.286;2023-02-26T04:59:36;99578.09;;;3.42;55.57
51321;BME280;38732;49.556;6.286;2023-02-26T05:02:04;99582.03;;;3.33;56.61
51321;BME280;38732;49.556;6.286;2023-02-26T05:04:33;99586.22;;;3.31;55.75
51321;BME280;38732;49.556;6.286;2023-02-26T05:07:01;99582.81;;;3.30;55.79
51321;BME280;38732;49.556;6.286;2023-02-26T05:09:29;99586.06;;;3.26;56.18
51321;BME280;38732;49.556;6.286;2023-02-26T05:11:57;99585.91;;;3.20;55.91
51321;BME280;38732;49.556;6.286;2023-02-26T05:14:26;99585.28;;;3.27;55.83
51321;BME280;38732;49.556;6.286;2023-02-26T05:16:54;99586.63;;;3.16;56.21
51321;BME280;38732;49.556;6.286;2023-02-26T05:19:22;99584.25;;;3.22;55.92
51321;BME280;38732;49.556;6.286;2023-02-26T05:21:50;99596.91;;;3.19;55.96
51321;BME280;38732;49.556;6.286;2023-02-26T05:24:18;99601.44;;;3.00;56.47
51321;BME280;38732;49.556;6.286;2023-02-26T05:26:46;99615.84;;;2.74;58.03
51321;BME280;38732;49.556;6.286;2023-02-26T05:29:15;99615.88;;;3.00;57.06
51321;BME280;38732;49.556;6.286;2023-02-26T05:31:43;99611.25;;;3.15;56.48
51321;BME280;38732;49.556;6.286;2023-02-26T05:34:11;99614.28;;;3.03;56.61
51321;BME280;38732;49.556;6.286;2023-02-26T05:36:39;99613.97;;;2.94;56.57
51321;BME280;38732;49.556;6.286;2023-02-26T05:39:08;99621.97;;;2.79;56.85
51321;BME280;38732;49.556;6.286;2023-02-26T05:41:37;99617.72;;;2.78;56.80
51321;BME280;38732;49.556;6.286;2023-02-26T05:44:05;99616.06;;;2.80;56.71
51321;BME280;38732;49.556;6.286;2023-02-26T05:46:33;99632.16;;;2.79;57.43
51321;BME280;38732;49.556;6.286;2023-02-26T05:49:02;99636.50;;;2.56;57.25
51321;BME280;38732;49.556;6.286;2023-02-26T05:51:30;99630.94;;;2.92;56.43
51321;BME280;38732;49.556;6.286;2023-02-26T05:53:58;99637.00;;;2.72;56.71
51321;BME280;38732;49.556;6.286;2023-02-26T05:56:26;99640.72;;;2.80;56.67
51321;BME280;38732;49.556;6.286;2023-02-26T05:58:55;99646.69;;;2.56;57.53
51321;BME280;38732;49.556;6.286;2023-02-26T06:01:23;99658.63;;;2.33;58.07
51321;BME280;38732;49.556;6.286;2023-02-26T06:03:51;99649.56;;;2.42;58.52
51321;BME280;38732;49.556;6.286;2023-02-26T06:06:19;99651.97;;;2.87;56.45
51321;BME280;38732;49.556;6.286;2023-02-26T06:08:48;99663.66;;;2.32;57.29
51321;BME280;38732;49.556;6.286;2023-02-26T06:11:16;99654.31;;;2.55;57.80
51321;BME280;38732;49.556;6.286;2023-02-26T06:13:44;99658.81;;;2.88;56.89
51321;BME280;38732;49.556;6.286;2023-02-26T06:16:12;99653.41;;;2.78;56.65
51321;BME280;38732;49.556;6.286;2023-02-26T06:18:41;99656.63;;;2.73;57.07
51321;BME280;38732;49.556;6.286;2023-02-26T06:21:09;99660.78;;;2.71;57.31
51321;BME280;38732;49.556;6.286;2023-02-26T06:23:40;99669.78;;;2.61;57.59
51321;BME280;38732;49.556;6.286;2023-02-26T06:26:08;99676.09;;;2.71;56.88
51321;BME280;38732;49.556;6.286;2023-02-26T06:28:37;99673.44;;;2.68;57.03
51321;BME280;38732;49.556;6.286;2023-02-26T06:31:07;99679.13;;;2.85;56.36
51321;BME280;38732;49.556;6.286;2023-02-26T06:33:35;99673.78;;;2.54;57.11
51321;BME280;38732;49.556;6.286;2023-02-26T06:36:03;99682.09;;;2.49;56.99
51321;BME280;38732;49.556;6.286;2023-02-26T06:38:32;99688.25;;;2.31;57.90
51321;BME280;38732;49.556;6.286;2023-02-26T06:41:00;99691.47;;;2.74;56.81
51321;BME280;38732;49.556;6.286;2023-02-26T06:43:28;99695.56;;;2.45;57.81
51321;BME280;38732;49.556;6.286;2023-02-26T06:45:58;99695.34;;;2.63;56.53
51321;BME280;38732;49.556;6.286;2023-02-26T06:48:27;99704.88;;;2.68;56.88
51321;BME280;38732;49.556;6.286;2023-02-26T06:50:55;99706.31;;;2.60;56.95
51321;BME280;38732;49.556;6.286;2023-02-26T06:53:24;99706.59;;;2.69;56.99
51321;BME280;38732;49.556;6.286;2023-02-26T06:55:52;99711.38;;;2.84;56.73
51321;BME280;38732;49.556;6.286;2023-02-26T06:58:21;99722.88;;;2.25;57.88
51321;BME280;38732;49.556;6.286;2023-02-26T07:00:49;99722.91;;;2.73;56.74
51321;BME280;38732;49.556;6.286;2023-02-26T07:03:17;99730.38;;;2.68;56.63
51321;BME280;38732;49.556;6.286;2023-02-26T07:05:45;99732.00;;;2.66;56.89
51321;BME280;38732;49.556;6.286;2023-02-26T07:08:14;99734.16;;;2.55;57.44
51321;BME280;38732;49.556;6.286;2023-02-26T07:10:42;99736.38;;;2.46;57.85
51321;BME280;38732;49.556;6.286;2023-02-26T07:13:10;99738.00;;;1.99;60.04
51321;BME280;38732;49.556;6.286;2023-02-26T07:15:39;99735.81;;;2.31;58.66
51321;BME280;38732;49.556;6.286;2023-02-26T07:18:07;99741.94;;;2.13;59.24
51321;BME280;38732;49.556;6.286;2023-02-26T07:20:35;99738.84;;;2.67;57.53
51321;BME280;38732;49.556;6.286;2023-02-26T07:23:03;99751.94;;;2.54;57.70
51321;BME280;38732;49.556;6.286;2023-02-26T07:25:32;99747.53;;;2.72;57.19
51321;BME280;38732;49.556;6.286;2023-02-26T07:28:01;99755.53;;;2.36;58.27
51321;BME280;38732;49.556;6.286;2023-02-26T07:30:29;99749.28;;;2.51;57.99
51321;BME280;38732;49.556;6.286;2023-02-26T07:32:57;99755.34;;;2.54;56.83
51321;BME280;38732;49.556;6.286;2023-02-26T07:35:25;99761.78;;;2.67;57.00
51321;BME280;38732;49.556;6.286;2023-02-26T07:37:53;99756.91;;;2.73;57.40
51321;BME280;38732;49.556;6.286;2023-02-26T07:40:22;99763.44;;;2.67;57.53
51321;BME280;38732;49.556;6.286;2023-02-26T07:42:50;99769.41;;;2.90;56.39
51321;BME280;38732;49.556;6.286;2023-02-26T07:45:18;99765.81;;;2.85;56.60
51321;BME280;38732;49.556;6.286;2023-02-26T07:47:47;99760.38;;;2.75;56.44
51321;BME280;38732;49.556;6.286;2023-02-26T07:50:16;99767.13;;;2.97;56.11
51321;BME280;38732;49.556;6.286;2023-02-26T07:52:44;99767.47;;;2.84;55.83
51321;BME280;38732;49.556;6.286;2023-02-26T07:55:13;99778.75;;;2.22;58.38
51321;BME280;38732;49.556;6.286;2023-02-26T07:57:41;99779.00;;;2.28;58.64
51321;BME280;38732;49.556;6.286;2023-02-26T08:00:10;99778.47;;;1.70;59.40
51321;BME280;38732;49.556;6.286;2023-02-26T08:02:38;99772.97;;;2.48;58.23
51321;BME280;38732;49.556;6.286;2023-02-26T08:05:06;99764.50;;;2.49;57.40
51321;BME280;38732;49.556;6.286;2023-02-26T08:07:35;99777.50;;;1.89;59.43
51321;BME280;38732;49.556;6.286;2023-02-26T08:10:03;99782.94;;;2.20;59.20
51321;BME280;38732;49.556;6.286;2023-02-26T08:12:32;99784.66;;;1.98;59.02
51321;BME280;38732;49.556;6.286;2023-02-26T08:15:00;99786.25;;;2.62;57.95
51321;BME280;38732;49.556;6.286;2023-02-26T08:17:28;99792.63;;;2.28;58.01
51321;BME280;38732;49.556;6.286;2023-02-26T08:19:56;99800.41;;;3.02;55.94
51321;BME280;38732;49.556;6.286;2023-02-26T08:22:24;99802.22;;;2.35;57.66
51321;BME280;38732;49.556;6.286;2023-02-26T08:24:53;99804.84;;;3.32;55.24
51321;BME280;38732;49.556;6.286;2023-02-26T08:27:21;99809.00;;;3.28;54.81
51321;BME280;38732;49.556;6.286;2023-02-26T08:29:50;99819.03;;;3.48;54.81
51321;BME280;38732;49.556;6.286;2023-02-26T08:32:18;99818.19;;;3.74;54.24
51321;BME280;38732;49.556;6.286;2023-02-26T08:34:46;99815.47;;;3.44;54.34
51321;BME280;38732;49.556;6.286;2023-02-26T08:37:14;99818.72;;;3.89;53.06
51321;BME280;38732;49.556;6.286;2023-02-26T08:39:43;99821.22;;;3.88;53.44
51321;BME280;38732;49.556;6.286;2023-02-26T08:42:11;99817.94;;;3.92;52.63
51321;BME280;38732;49.556;6.286;2023-02-26T08:44:39;99819.66;;;3.93;52.76
51321;BME280;38732;49.556;6.286;2023-02-26T08:47:08;99828.97;;;3.65;52.70
51321;BME280;38732;49.556;6.286;2023-02-26T08:49:36;99825.50;;;3.14;53.80
51321;BME280;38732;49.556;6.286;2023-02-26T08:52:04;99836.28;;;3.55;52.88
51321;BME280;38732;49.556;6.286;2023-02-26T08:54:32;99833.16;;;3.63;53.18
51321;BME280;38732;49.556;6.286;2023-02-26T08:57:01;99835.13;;;3.46;53.37
51321;BME280;38732;49.556;6.286;2023-02-26T08:59:29;99837.84;;;4.02;52.41
51321;BME280;38732;49.556;6.286;2023-02-26T09:01:57;99847.25;;;3.78;53.14
51321;BME280;38732;49.556;6.286;2023-02-26T09:04:25;99834.22;;;3.96;52.74
51321;BME280;38732;49.556;6.286;2023-02-26T09:06:53;99833.47;;;4.25;51.85
51321;BME280;38732;49.556;6.286;2023-02-26T09:09:22;99832.84;;;4.05;52.17
51321;BME280;38732;49.556;6.286;2023-02-26T09:11:50;99836.09;;;4.01;51.92
51321;BME280;38732;49.556;6.286;2023-02-26T09:14:18;99847.53;;;4.40;51.76
51321;BME280;38732;49.556;6.286;2023-02-26T09:16:47;99847.69;;;4.44;49.57
51321;BME280;38732;49.556;6.286;2023-02-26T09:19:15;99833.97;;;5.00;49.05
51321;BME280;38732;49.556;6.286;2023-02-26T09:21:43;99849.25;;;4.68;49.05
51321;BME280;38732;49.556;6.286;2023-02-26T09:24:11;99855.59;;;4.52;49.87
51321;BME280;38732;49.556;6.286;2023-02-26T09:26:39;99860.94;;;4.60;50.38
51321;BME280;38732;49.556;6.286;2023-02-26T09:29:07;99859.00;;;3.98;49.04
51321;BME280;38732;49.556;6.286;2023-02-26T09:31:36;99869.31;;;4.27;49.23
51321;BME280;38732;49.556;6.286;2023-02-26T09:34:04;99874.34;;;3.73;51.37
51321;BME280;38732;49.556;6.286;2023-02-26T09:36:32;99881.16;;;4.25;50.10
51321;BME280;38732;49.556;6.286;2023-02-26T09:39:00;99879.88;;;4.39;49.89
51321;BME280;38732;49.556;6.286;2023-02-26T09:41:31;99887.91;;;4.77;49.27
51321;BME280;38732;49.556;6.286;2023-02-26T09:44:26;99889.34;;;4.42;49.14
51321;BME280;38732;49.556;6.286;2023-02-26T09:49:57;99907.84;;;4.89;49.18
51321;BME280;38732;49.556;6.286;2023-02-26T09:52:31;99902.31;;;4.75;49.12
51321;BME280;38732;49.556;6.286;2023-02-26T09:55:05;99918.09;;;3.83;50.49
51321;BME280;38732;49.556;6.286;2023-02-26T09:57:43;99917.50;;;4.16;50.66
51321;BME280;38732;49.556;6.286;2023-02-26T10:00:29;99914.50;;;5.12;49.90
51321;BME280;38732;49.556;6.286;2023-02-26T10:03:33;99904.63;;;5.56;47.24
51321;BME280;38732;49.556;6.286;2023-02-26T10:06:04;99907.41;;;5.02;47.43
51321;BME280;38732;49.556;6.286;2023-02-26T10:08:46;99906.41;;;5.27;46.81
51321;BME280;38732;49.556;6.286;2023-02-26T10:11:29;99901.56;;;4.79;47.21
51321;BME280;38732;49.556;6.286;2023-02-26T10:14:10;99896.63;;;5.14;46.61
51321;BME280;38732;49.556;6.286;2023-02-26T10:16:42;99899.34;;;4.90;45.73
51321;BME280;38732;49.556;6.286;2023-02-26T10:19:26;99891.69;;;5.83;45.32
51321;BME280;38732;49.556;6.286;2023-02-26T10:22:05;99893.56;;;5.89;45.05
51321;BME280;38732;49.556;6.286;2023-02-26T10:24:41;99891.50;;;5.44;45.51
51321;BME280;38732;49.556;6.286;2023-02-26T10:27:15;99899.38;;;5.83;44.66
51321;BME280;38732;49.556;6.286;2023-02-26T10:29:52;99898.94;;;5.35;44.70
51321;BME280;38732;49.556;6.286;2023-02-26T10:32:35;99907.63;;;5.40;45.64
51321;BME280;38732;49.556;6.286;2023-02-26T10:35:09;99909.94;;;5.62;43.38
51321;BME280;38732;49.556;6.286;2023-02-26T10:37:50;99903.63;;;5.83;43.29
51321;BME280;38732;49.556;6.286;2023-02-26T10:40:27;99912.91;;;5.78;42.32
51321;BME280;38732;49.556;6.286;2023-02-26T10:43:10;99913.16;;;5.89;42.25
51321;BME280;38732;49.556;6.286;2023-02-26T10:46:06;99916.81;;;5.95;41.26
51321;BME280;38732;49.556;6.286;2023-02-26T10:48:54;99915.28;;;6.02;40.33
51321;BME280;38732;49.556;6.286;2023-02-26T10:51:30;99927.16;;;6.33;40.50
51321;BME280;38732;49.556;6.286;2023-02-26T10:54:20;99935.13;;;5.79;41.24
51321;BME280;38732;49.556;6.286;2023-02-26T10:56:48;99920.91;;;6.23;40.04
51321;BME280;38732;49.556;6.286;2023-02-26T10:59:17;99925.59;;;6.40;39.95
51321;BME280;38732;49.556;6.286;2023-02-26T11:01:46;99918.41;;;7.40;38.82
51321;BME280;38732;49.556;6.286;2023-02-26T11:04:17;99918.59;;;7.08;39.40
51321;BME280;38732;49.556;6.286;2023-02-26T11:07:00;99924.50;;;7.45;38.72
51321;BME280;38732;49.556;6.286;2023-02-26T11:09:33;99927.91;;;7.44;38.02
51321;BME280;38732;49.556;6.286;2023-02-26T11:12:14;99927.66;;;7.33;37.73
51321;BME280;38732;49.556;6.286;2023-02-26T11:14:43;99930.84;;;7.20;37.55
51321;BME280;38732;49.556;6.286;2023-02-26T11:17:21;99934.72;;;7.42;37.66
51321;BME280;38732;49.556;6.286;2023-02-26T11:20:04;99941.69;;;6.69;38.26
51321;BME280;38732;49.556;6.286;2023-02-26T11:22:33;99937.41;;;7.07;37.83
51321;BME280;38732;49.556;6.286;2023-02-26T11:25:03;99925.34;;;7.03;37.88
51321;BME280;38732;49.556;6.286;2023-02-26T11:27:36;99926.19;;;7.04;38.92
51321;BME280;38732;49.556;6.286;2023-02-26T11:30:19;99945.41;;;7.64;37.13
51321;BME280;38732;49.556;6.286;2023-02-26T11:32:52;99929.03;;;7.16;38.93
51321;BME280;38732;49.556;6.286;2023-02-26T11:35:23;99934.63;;;6.98;39.36
51321;BME280;38732;49.556;6.286;2023-02-26T11:37:57;99935.97;;;7.63;38.24
51321;BME280;38732;49.556;6.286;2023-02-26T11:40:51;99931.03;;;6.52;39.70
51321;BME280;38732;49.556;6.286;2023-02-26T11:43:22;99921.41;;;6.80;38.94
51321;BME280;38732;49.556;6.286;2023-02-26T11:45:57;99923.06;;;7.17;38.77
51321;BME280;38732;49.556;6.286;2023-02-26T11:48:37;99932.75;;;6.18;39.76
51321;BME280;38732;49.556;6.286;2023-02-26T11:51:08;99925.38;;;7.05;38.43
51321;BME280;38732;49.556;6.286;2023-02-26T11:53:51;99936.19;;;6.90;38.57
51321;BME280;38732;49.556;6.286;2023-02-26T11:59:06;99932.56;;;7.64;38.03
51321;BME280;38732;49.556;6.286;2023-02-26T12:01:35;99915.78;;;8.31;36.53
51321;BME280;38732;49.556;6.286;2023-02-26T12:04:04;99924.13;;;8.18;37.65
51321;BME280;38732;49.556;6.286;2023-02-26T12:06:32;99917.16;;;8.62;35.93
51321;BME280;38732;49.556;6.286;2023-02-26T12:09:00;99913.31;;;8.95;35.35
51321;BME280;38732;49.556;6.286;2023-02-26T12:20:23;99903.47;;;9.31;33.02
51321;BME280;38732;49.556;6.286;2023-02-26T12:26:05;99900.47;;;10.66;32.25
51321;BME280;38732;49.556;6.286;2023-02-26T12:28:51;99906.59;;;10.85;30.66
51321;BME280;38732;49.556;6.286;2023-02-26T12:39:52;99903.28;;;11.01;30.75
51321;BME280;38732;49.556;6.286;2023-02-26T12:42:37;99913.84;;;11.68;29.72
51321;BME280;38732;49.556;6.286;2023-02-26T12:45:22;99901.22;;;10.50;30.50
51321;BME280;38732;49.556;6.286;2023-02-26T12:47:55;99909.75;;;10.40;31.22
51321;BME280;38732;49.556;6.286;2023-02-26T12:50:39;99913.63;;;9.18;32.80
51321;BME280;38732;49.556;6.286;2023-02-26T13:01:12;99907.66;;;11.13;31.27
51321;BME280;38732;49.556;6.286;2023-02-26T13:06:42;99916.31;;;10.07;33.29
51321;BME280;38732;49.556;6.286;2023-02-26T13:09:29;99914.09;;;9.58;32.99
51321;BME280;38732;49.556;6.286;2023-02-26T13:14:57;99920.25;;;8.99;34.39
51321;BME280;38732;49.556;6.286;2023-02-26T13:20:24;99930.34;;;8.85;32.96
51321;BME280;38732;49.556;6.286;2023-02-26T13:23:02;99935.16;;;8.62;33.81
51321;BME280;38732;49.556;6.286;2023-02-26T13:26:05;99922.66;;;8.87;33.07
51321;BME280;38732;49.556;6.286;2023-02-26T13:28:34;99918.00;;;8.63;34.48
51321;BME280;38732;49.556;6.286;2023-02-26T13:31:08;99931.47;;;8.45;33.19
51321;BME280;38732;49.556;6.286;2023-02-26T13:33:40;99928.78;;;8.94;33.30
51321;BME280;38732;49.556;6.286;2023-02-26T13:36:09;99918.38;;;9.55;33.08
51321;BME280;38732;49.556;6.286;2023-02-26T13:38:45;99922.69;;;10.41;32.44
51321;BME280;38732;49.556;6.286;2023-02-26T13:41:26;99910.91;;;10.78;30.54
51321;BME280;38732;49.556;6.286;2023-02-26T13:55:52;99925.66;;;9.19;32.69
51321;BME280;38732;49.556;6.286;2023-02-26T14:01:18;99929.53;;;9.54;32.86
51321;BME280;38732;49.556;6.286;2023-02-26T14:03:52;99926.00;;;9.47;31.88
51321;BME280;38732;49.556;6.286;2023-02-26T14:06:43;99941.16;;;7.66;34.24
51321;BME280;38732;49.556;6.286;2023-02-26T14:14:39;99928.47;;;10.20;32.13
51321;BME280;38732;49.556;6.286;2023-02-26T14:19:44;99929.31;;;11.44;29.65
51321;BME280;38732;49.556;6.286;2023-02-26T14:22:33;99927.78;;;12.25;29.34
51321;BME280;38732;49.556;6.286;2023-02-26T14:32:54;99932.13;;;12.50;28.21
51321;BME280;38732;49.556;6.286;2023-02-26T14:35:39;99943.09;;;11.43;29.16
51321;BME280;38732;49.556;6.286;2023-02-26T14:40:54;99945.69;;;10.20;30.87
51321;BME280;38732;49.556;6.286;2023-02-26T14:43:41;99952.75;;;9.58;32.21
51321;BME280;38732;49.556;6.286;2023-02-26T14:46:11;99963.19;;;8.44;33.73
51321;BME280;38732;49.556;6.286;2023-02-26T14:48:39;99962.47;;;8.06;34.51
51321;BME280;38732;49.556;6.286;2023-02-26T14:51:26;99966.34;;;7.40;35.56
51321;BME280;38732;49.556;6.286;2023-02-26T14:56:59;99972.13;;;7.72;36.01
51321;BME280;38732;49.556;6.286;2023-02-26T15:02:31;99974.13;;;8.85;35.26
51321;BME280;38732;49.556;6.286;2023-02-26T15:05:16;99975.38;;;9.12;33.38
51321;BME280;38732;49.556;6.286;2023-02-26T15:16:04;99999.63;;;7.35;37.28
51321;BME280;38732;49.556;6.286;2023-02-26T15:21:41;100007.84;;;8.02;35.84
51321;BME280;38732;49.556;6.286;2023-02-26T15:24:13;100000.81;;;7.10;38.21
51321;BME280;38732;49.556;6.286;2023-02-26T15:26:48;100003.84;;;7.31;36.57
51321;BME280;38732;49.556;6.286;2023-02-26T15:29:21;100007.31;;;7.76;36.12
51321;BME280;38732;49.556;6.286;2023-02-26T15:31:57;100007.63;;;7.90;35.77
51321;BME280;38732;49.556;6.286;2023-02-26T15:34:26;100002.38;;;7.85;36.10
51321;BME280;38732;49.556;6.286;2023-02-26T15:36:56;99997.03;;;7.76;36.19
51321;BME280;38732;49.556;6.286;2023-02-26T15:39:25;100007.47;;;7.82;36.25
51321;BME280;38732;49.556;6.286;2023-02-26T15:41:54;100021.28;;;7.08;36.55
51321;BME280;38732;49.556;6.286;2023-02-26T15:44:29;100023.81;;;7.05;36.54
51321;BME280;38732;49.556;6.286;2023-02-26T15:47:00;100012.25;;;7.24;36.27
51321;BME280;38732;49.556;6.286;2023-02-26T15:49:35;100022.16;;;6.73;36.97